aviador You're here:

KCKM Decoded Metar

in
Report Time2017-06-29 12:15:00
UTC Time2017-06-29 12:28:28
Flight Rules vfr VFR
Wind140° at 04 kt
W.Decomp.*RWY 18: 3.1 kt HW 2.6 kt LCW
W.Rank140° ranks 8
Current wind is below 140° avg. (6.9)
Visibility9999 m
Phenomena:N/A
Clouds:N/A
CeilingNone
Temp23°C
Dew Point23°C (100% RH)
QNH1016 hPa
Raw Report
KCKM 291215Z AUTO 14004KT 9SM 23/23 A3000 RMK A01=

Extra information for KCKM:More info

Social comments